Overview Statistics Trail Chart Weather Telemetry Raw packets
 

This is the latest recevied weather packets stored in our database for station/object N9BLE. If no packets are shown the sender has not sent any weather packets the latest 10 day(s).

<< 86 87 88 89 90 91 92 >>
Time Temp. Humidity Pressure Rain* Wind** Luminosity Snow
1777406355 17.22° C 60% 1017.6 hPa 0 mm - 687 W/m² -
1777406055 16.67° C 63% 1017.7 hPa 0 mm - 668 W/m² -
1777405752 16.67° C 64% 1017.8 hPa 0 mm - 368 W/m² -
1777405448 16.67° C 63% 1017.9 hPa 0 mm - 693 W/m² -
1777405146 16.67° C 64% 1018.1 hPa 0 mm - 757 W/m² -
1777404843 16.67° C 61% 1018 hPa 0 mm - 723 W/m² -
1777404540 15.56° C 66% 1018.2 hPa 0 mm - 340 W/m² -
1777404236 15.56° C 65% 1018.2 hPa 0 mm - 786 W/m² -
1777403933 16.11° C 65% 1018.4 hPa 0 mm - 785 W/m² -
1777403632 16.67° C 63% 1018.3 hPa 0 mm - 786 W/m² -
1777403327 16.11° C 62% 1018.2 hPa 0 mm - 771 W/m² -
1777403027 15.56° C 67% 1018.3 hPa 0 mm - 330 W/m² -
1777402722 15.56° C 65% 1018.7 hPa 0 mm - 207 W/m² -
1777402418 15° C 68% 1018.4 hPa 0 mm - 731 W/m² -
1777402116 15° C 69% 1018.6 hPa 0 mm - 182 W/m² -
1777401812 15° C 70% 1018.6 hPa 0 mm - 200 W/m² -
1777401511 15° C 70% 1018.4 hPa 0 mm - 391 W/m² -
1777401207 15° C 69% 1018.6 hPa 0 mm - 234 W/m² -
1777400903 13.89° C 71% 1018.5 hPa 0 mm - 464 W/m² -
1777400599 13.89° C 73% 1019.2 hPa 0 mm - 293 W/m² -
1777400297 14.44° C 71% 1018.9 hPa 0 mm - 268 W/m² -
1777399992 15° C 69% 1019 hPa 0 mm - 246 W/m² -
1777399689 15° C 70% 1018.9 hPa 0 mm - 722 W/m² -
1777399386 13.89° C 70% 1018.9 hPa 0 mm - 282 W/m² -
1777399084 13.89° C 71% 1018.9 hPa 0 mm - 1048 W/m² -

* Rain latest hour (hover to see other rain measurements)
** Current wind speed in m/s (hover to see current wind gust speed)